CEB477 RPLL-RPMD
Flight info
| Callsign | CEB477 |
|---|---|
| Flight time | 1h 24m |
| Altitude | 37000 |
| Route | IPATA2R IPATA B462 MASBA W9A BN W9 RIMAR RIMAR2R |
| Aircraft | A339/H-SADE1E2E3GHIJ3J5M1P2RWXY/LB2D1 |
Departure
| Time | 2026-05-07 16:00 |
|---|---|
| Airport | Ninoy Aquino International Airport (RPLL) |
Arrival
| Time | 2026-05-07 17:25 |
|---|---|
| Airport | Francisco Bangoy International Airport (RPMD) |
| Time | Latitude | Longitude | Altitude | Speed | Heading |
|---|---|---|---|---|---|
| 2026-05-07 15:23 | 14.51561 | 121.01608 | 92 ft | 0 kts | 46° |
| 2026-05-07 15:38 | 14.51557 | 121.01603 | 93 ft | 2 kts | 46° |
| 2026-05-07 15:38 | 14.51546 | 121.01592 | 93 ft | 2 kts | 46° |
| 2026-05-07 15:38 | 14.51536 | 121.01581 | 93 ft | 2 kts | 46° |
| 2026-05-07 15:38 | 14.51526 | 121.01569 | 93 ft | 2 kts | 46° |
| 2026-05-07 15:39 | 14.51517 | 121.01557 | 93 ft | 2 kts | 71° |
| 2026-05-07 15:39 | 14.51514 | 121.01542 | 93 ft | 2 kts | 95° |
| 2026-05-07 15:39 | 14.51518 | 121.01527 | 93 ft | 2 kts | 117° |
| 2026-05-07 15:39 | 14.51524 | 121.01517 | 93 ft | 0 kts | 135° |
| 2026-05-07 15:40 | 14.51527 | 121.01514 | 93 ft | 0 kts | 135° |
| 2026-05-07 15:44 | 14.51525 | 121.01517 | 92 ft | 1 kts | 135° |
| 2026-05-07 15:44 | 14.51513 | 121.01529 | 92 ft | 3 kts | 135° |
| 2026-05-07 15:44 | 14.51489 | 121.01553 | 92 ft | 6 kts | 135° |
| 2026-05-07 15:44 | 14.51449 | 121.01595 | 92 ft | 9 kts | 134° |
| 2026-05-07 15:45 | 14.51397 | 121.01651 | 92 ft | 12 kts | 134° |
| 2026-05-07 15:45 | 14.51331 | 121.01719 | 92 ft | 14 kts | 135° |
| 2026-05-07 15:45 | 14.51260 | 121.01793 | 92 ft | 14 kts | 135° |
| 2026-05-07 15:45 | 14.51187 | 121.01868 | 92 ft | 14 kts | 135° |
| 2026-05-07 15:46 | 14.51133 | 121.01924 | 92 ft | 3 kts | 135° |
| 2026-05-07 15:46 | 14.51112 | 121.01946 | 92 ft | 2 kts | 135° |
| 2026-05-07 15:48 | 14.51109 | 121.01949 | 92 ft | 1 kts | 135° |
| 2026-05-07 15:48 | 14.51091 | 121.01967 | 92 ft | 5 kts | 135° |
| 2026-05-07 15:48 | 14.51070 | 121.01985 | 92 ft | 4 kts | 155° |
| 2026-05-07 15:49 | 14.51037 | 121.01972 | 92 ft | 7 kts | 231° |
| 2026-05-07 15:49 | 14.50995 | 121.01907 | 92 ft | 16 kts | 239° |
| 2026-05-07 15:49 | 14.50924 | 121.01779 | 93 ft | 24 kts | 240° |
| 2026-05-07 15:49 | 14.50840 | 121.01630 | 92 ft | 23 kts | 240° |
| 2026-05-07 15:50 | 14.50761 | 121.01486 | 92 ft | 22 kts | 240° |
| 2026-05-07 15:50 | 14.50683 | 121.01344 | 92 ft | 22 kts | 240° |
| 2026-05-07 15:50 | 14.50604 | 121.01205 | 92 ft | 23 kts | 239° |
| 2026-05-07 15:50 | 14.50523 | 121.01057 | 92 ft | 23 kts | 240° |
| 2026-05-07 15:51 | 14.50446 | 121.00919 | 92 ft | 22 kts | 239° |
| 2026-05-07 15:51 | 14.50370 | 121.00783 | 92 ft | 22 kts | 240° |
| 2026-05-07 15:51 | 14.50296 | 121.00649 | 92 ft | 21 kts | 240° |
| 2026-05-07 15:51 | 14.50224 | 121.00519 | 92 ft | 21 kts | 240° |
| 2026-05-07 15:52 | 14.50153 | 121.00391 | 92 ft | 21 kts | 240° |
| 2026-05-07 15:52 | 14.50081 | 121.00261 | 92 ft | 20 kts | 240° |
| 2026-05-07 15:52 | 14.50009 | 121.00131 | 92 ft | 20 kts | 240° |
| 2026-05-07 15:52 | 14.49956 | 121.00036 | 92 ft | 9 kts | 240° |
| 2026-05-07 15:53 | 14.49922 | 120.99979 | 92 ft | 6 kts | 227° |
| 2026-05-07 15:53 | 14.49896 | 120.99967 | 92 ft | 0 kts | 184° |
| 2026-05-07 15:53 | 14.49895 | 120.99967 | 92 ft | 0 kts | 184° |
| 2026-05-07 15:53 | 14.49894 | 120.99967 | 92 ft | 0 kts | 179° |
| 2026-05-07 15:54 | 14.49892 | 120.99968 | 92 ft | 0 kts | 174° |
| 2026-05-07 15:54 | 14.49890 | 120.99968 | 92 ft | 0 kts | 174° |
| 2026-05-07 15:58 | 14.49881 | 120.99970 | 92 ft | 3 kts | 170° |
| 2026-05-07 15:58 | 14.49849 | 120.99981 | 92 ft | 6 kts | 157° |
| 2026-05-07 15:58 | 14.49807 | 121.00009 | 92 ft | 7 kts | 123° |
| 2026-05-07 15:59 | 14.49817 | 121.00070 | 92 ft | 7 kts | 62° |
| 2026-05-07 15:59 | 14.49820 | 121.00075 | 92 ft | 0 kts | 62° |
| 2026-05-07 16:00 | 14.49908 | 121.00239 | 93 ft | 68 kts | 60° |
| 2026-05-07 16:00 | 14.50277 | 121.00906 | 93 ft | 144 kts | 60° |
| 2026-05-07 16:00 | 14.50860 | 121.01930 | 498 ft | 175 kts | 62° |
| 2026-05-07 16:00 | 14.51459 | 121.02985 | 1492 ft | 171 kts | 63° |
| 2026-05-07 16:01 | 14.52025 | 121.04019 | 2339 ft | 175 kts | 64° |
| 2026-05-07 16:01 | 14.52635 | 121.05145 | 2853 ft | 187 kts | 63° |
| 2026-05-07 16:01 | 14.53283 | 121.06335 | 3216 ft | 203 kts | 63° |
| 2026-05-07 16:01 | 14.53984 | 121.07614 | 3585 ft | 222 kts | 63° |
| 2026-05-07 16:02 | 14.54756 | 121.09012 | 4008 ft | 239 kts | 62° |
| 2026-05-07 16:02 | 14.55584 | 121.10506 | 4439 ft | 255 kts | 62° |
| 2026-05-07 16:02 | 14.56451 | 121.12081 | 4896 ft | 270 kts | 65° |
| 2026-05-07 16:02 | 14.56911 | 121.13965 | 5321 ft | 280 kts | 96° |
| 2026-05-07 16:03 | 14.56255 | 121.15816 | 6046 ft | 282 kts | 128° |
| 2026-05-07 16:03 | 14.54842 | 121.17239 | 6832 ft | 287 kts | 140° |
| 2026-05-07 16:03 | 14.53298 | 121.18523 | 7567 ft | 292 kts | 141° |
| 2026-05-07 16:03 | 14.51722 | 121.19846 | 8312 ft | 296 kts | 140° |
| 2026-05-07 16:04 | 14.50158 | 121.21216 | 9057 ft | 301 kts | 139° |
| 2026-05-07 16:04 | 14.48573 | 121.22651 | 9808 ft | 305 kts | 139° |
| 2026-05-07 16:04 | 14.47029 | 121.24080 | 10507 ft | 310 kts | 138° |
| 2026-05-07 16:04 | 14.45409 | 121.25597 | 10940 ft | 326 kts | 138° |
| 2026-05-07 16:05 | 14.43687 | 121.27221 | 11372 ft | 341 kts | 138° |
| 2026-05-07 16:05 | 14.41929 | 121.28886 | 12063 ft | 347 kts | 138° |
| 2026-05-07 16:05 | 14.40147 | 121.30579 | 12842 ft | 350 kts | 138° |
| 2026-05-07 16:05 | 14.38357 | 121.32280 | 13623 ft | 352 kts | 139° |
| 2026-05-07 16:06 | 14.36554 | 121.33993 | 14393 ft | 355 kts | 139° |
| 2026-05-07 16:06 | 14.34735 | 121.35721 | 15156 ft | 358 kts | 139° |
| 2026-05-07 16:06 | 14.32917 | 121.37448 | 15906 ft | 360 kts | 139° |
| 2026-05-07 16:06 | 14.31076 | 121.39195 | 16653 ft | 363 kts | 139° |
| 2026-05-07 16:07 | 14.29223 | 121.40954 | 17393 ft | 365 kts | 139° |
| 2026-05-07 16:07 | 14.27418 | 121.42667 | 18097 ft | 368 kts | 139° |
| 2026-05-07 16:07 | 14.25533 | 121.44456 | 18818 ft | 370 kts | 139° |
| 2026-05-07 16:07 | 14.23689 | 121.46204 | 19505 ft | 373 kts | 139° |
| 2026-05-07 16:08 | 14.21804 | 121.47992 | 20185 ft | 375 kts | 139° |
| 2026-05-07 16:08 | 14.19854 | 121.49841 | 20860 ft | 378 kts | 139° |
| 2026-05-07 16:08 | 14.17934 | 121.51662 | 21498 ft | 380 kts | 139° |
| 2026-05-07 16:08 | 14.16006 | 121.53489 | 22116 ft | 382 kts | 139° |
| 2026-05-07 16:09 | 14.14023 | 121.55368 | 22727 ft | 385 kts | 139° |
| 2026-05-07 16:09 | 14.12052 | 121.57237 | 23309 ft | 387 kts | 139° |
| 2026-05-07 16:09 | 14.10149 | 121.59039 | 23850 ft | 390 kts | 139° |
| 2026-05-07 16:09 | 14.08273 | 121.60816 | 24371 ft | 392 kts | 139° |
| 2026-05-07 16:10 | 14.06257 | 121.62726 | 24907 ft | 395 kts | 139° |
| 2026-05-07 16:10 | 14.04247 | 121.64629 | 25419 ft | 397 kts | 139° |
| 2026-05-07 16:10 | 14.02171 | 121.66594 | 25931 ft | 400 kts | 139° |
| 2026-05-07 16:10 | 14.00105 | 121.68549 | 26420 ft | 402 kts | 139° |
| 2026-05-07 16:11 | 13.98043 | 121.70499 | 26889 ft | 404 kts | 139° |
| 2026-05-07 16:11 | 13.95988 | 121.72443 | 27341 ft | 407 kts | 139° |
| 2026-05-07 16:11 | 13.93894 | 121.74425 | 27788 ft | 409 kts | 139° |
| 2026-05-07 16:11 | 13.91813 | 121.76393 | 28219 ft | 412 kts | 139° |
| 2026-05-07 16:12 | 13.89708 | 121.78382 | 28640 ft | 414 kts | 138° |
| 2026-05-07 16:12 | 13.87602 | 121.80424 | 29054 ft | 417 kts | 136° |
| 2026-05-07 16:12 | 13.86249 | 121.81853 | 29323 ft | 419 kts | 134° |
| 2026-05-07 16:12 | 13.84429 | 121.83961 | 29696 ft | 421 kts | 131° |
| 2026-05-07 16:13 | 13.82521 | 121.86287 | 30090 ft | 424 kts | 131° |
| 2026-05-07 16:13 | 13.80653 | 121.88581 | 30467 ft | 426 kts | 131° |
| 2026-05-07 16:13 | 13.78742 | 121.90929 | 30836 ft | 428 kts | 130° |
| 2026-05-07 16:13 | 13.76821 | 121.93286 | 31191 ft | 430 kts | 130° |
| 2026-05-07 16:14 | 13.74901 | 121.95641 | 31538 ft | 433 kts | 130° |
| 2026-05-07 16:14 | 13.72968 | 121.98010 | 31877 ft | 435 kts | 130° |
| 2026-05-07 16:14 | 13.71020 | 122.00397 | 32210 ft | 437 kts | 130° |
| 2026-05-07 16:14 | 13.69084 | 122.02767 | 32533 ft | 439 kts | 130° |
| 2026-05-07 16:15 | 13.67101 | 122.05193 | 32856 ft | 441 kts | 130° |
| 2026-05-07 16:15 | 13.65141 | 122.07591 | 33160 ft | 444 kts | 130° |
| 2026-05-07 16:15 | 13.63162 | 122.10011 | 33461 ft | 446 kts | 130° |
| 2026-05-07 16:15 | 13.61168 | 122.12450 | 33756 ft | 448 kts | 130° |
| 2026-05-07 16:16 | 13.59158 | 122.14907 | 34049 ft | 450 kts | 130° |
| 2026-05-07 16:16 | 13.57141 | 122.17371 | 34327 ft | 452 kts | 130° |
| 2026-05-07 16:16 | 13.55131 | 122.19827 | 34644 ft | 453 kts | 130° |
| 2026-05-07 16:16 | 13.53107 | 122.22299 | 35037 ft | 451 kts | 130° |
| 2026-05-07 16:17 | 13.51100 | 122.24751 | 35421 ft | 450 kts | 130° |
| 2026-05-07 16:17 | 13.49089 | 122.27205 | 35738 ft | 451 kts | 130° |
| 2026-05-07 16:17 | 13.47088 | 122.29647 | 36000 ft | 452 kts | 130° |
| 2026-05-07 16:17 | 13.45056 | 122.32125 | 36256 ft | 453 kts | 130° |
| 2026-05-07 16:18 | 13.43041 | 122.34583 | 36506 ft | 454 kts | 130° |
| 2026-05-07 16:18 | 13.40993 | 122.37080 | 36756 ft | 455 kts | 130° |
| 2026-05-07 16:18 | 13.38965 | 122.39550 | 36930 ft | 458 kts | 130° |
| 2026-05-07 16:19 | 13.34848 | 122.44567 | 36912 ft | 459 kts | 130° |
| 2026-05-07 16:19 | 13.30784 | 122.49514 | 36893 ft | 459 kts | 130° |
| 2026-05-07 16:20 | 13.26728 | 122.54450 | 36885 ft | 460 kts | 130° |
| 2026-05-07 16:20 | 13.22591 | 122.59482 | 36883 ft | 460 kts | 130° |
| 2026-05-07 16:21 | 13.18506 | 122.64448 | 36882 ft | 459 kts | 130° |
| 2026-05-07 16:21 | 13.14380 | 122.69459 | 36882 ft | 460 kts | 130° |
| 2026-05-07 16:22 | 13.10262 | 122.74459 | 36882 ft | 460 kts | 130° |
| 2026-05-07 16:22 | 13.06139 | 122.79464 | 36881 ft | 461 kts | 131° |
| 2026-05-07 16:23 | 13.02021 | 122.84457 | 36881 ft | 463 kts | 131° |
| 2026-05-07 16:23 | 12.97862 | 122.89497 | 36881 ft | 465 kts | 131° |
| 2026-05-07 16:24 | 12.93695 | 122.94542 | 36882 ft | 466 kts | 131° |
| 2026-05-07 16:24 | 12.89502 | 122.99618 | 36882 ft | 467 kts | 131° |
| 2026-05-07 16:25 | 12.85328 | 123.04669 | 36882 ft | 467 kts | 130° |
| 2026-05-07 16:25 | 12.81132 | 123.09744 | 36882 ft | 467 kts | 130° |
| 2026-05-07 16:26 | 12.76966 | 123.14779 | 36882 ft | 467 kts | 130° |
| 2026-05-07 16:26 | 12.72765 | 123.19854 | 36882 ft | 467 kts | 130° |
| 2026-05-07 16:27 | 12.68592 | 123.24892 | 36882 ft | 467 kts | 130° |
| 2026-05-07 16:27 | 12.64389 | 123.29964 | 36882 ft | 467 kts | 130° |
| 2026-05-07 16:28 | 12.60200 | 123.35017 | 36882 ft | 467 kts | 130° |
| 2026-05-07 16:28 | 12.56024 | 123.40050 | 36882 ft | 467 kts | 130° |
| 2026-05-07 16:29 | 12.51822 | 123.45113 | 36882 ft | 467 kts | 130° |
| 2026-05-07 16:29 | 12.47660 | 123.50127 | 36882 ft | 467 kts | 130° |
| 2026-05-07 16:30 | 12.43460 | 123.55177 | 36882 ft | 467 kts | 131° |
| 2026-05-07 16:30 | 12.38951 | 123.59945 | 36882 ft | 466 kts | 137° |
| 2026-05-07 16:31 | 12.33982 | 123.64110 | 36882 ft | 466 kts | 144° |
| 2026-05-07 16:31 | 12.28544 | 123.67675 | 36882 ft | 465 kts | 151° |
| 2026-05-07 16:32 | 12.22848 | 123.70828 | 36882 ft | 465 kts | 152° |
| 2026-05-07 16:32 | 12.17167 | 123.73944 | 36882 ft | 465 kts | 152° |
| 2026-05-07 16:33 | 12.11509 | 123.77056 | 36882 ft | 465 kts | 152° |
| 2026-05-07 16:33 | 12.05811 | 123.80193 | 36882 ft | 465 kts | 152° |
| 2026-05-07 16:34 | 12.00124 | 123.83326 | 36882 ft | 465 kts | 152° |
| 2026-05-07 16:34 | 11.94454 | 123.86448 | 36882 ft | 466 kts | 152° |
| 2026-05-07 16:35 | 11.88778 | 123.89572 | 36882 ft | 465 kts | 152° |
| 2026-05-07 16:35 | 11.83095 | 123.92698 | 36882 ft | 465 kts | 152° |
| 2026-05-07 16:36 | 11.77430 | 123.95813 | 36882 ft | 465 kts | 152° |
| 2026-05-07 16:36 | 11.71746 | 123.98937 | 36882 ft | 465 kts | 152° |
| 2026-05-07 16:37 | 11.66196 | 124.01986 | 36882 ft | 465 kts | 152° |
| 2026-05-07 16:37 | 11.60495 | 124.05112 | 36882 ft | 466 kts | 152° |
| 2026-05-07 16:38 | 11.54735 | 124.08248 | 36885 ft | 479 kts | 152° |
| 2026-05-07 16:38 | 11.48794 | 124.11488 | 36884 ft | 486 kts | 152° |
| 2026-05-07 16:39 | 11.42979 | 124.14661 | 36882 ft | 487 kts | 152° |
| 2026-05-07 16:39 | 11.37039 | 124.17903 | 36882 ft | 487 kts | 152° |
| 2026-05-07 16:40 | 11.31082 | 124.21153 | 36882 ft | 487 kts | 152° |
| 2026-05-07 16:40 | 11.25143 | 124.24392 | 36882 ft | 487 kts | 152° |
| 2026-05-07 16:41 | 11.19177 | 124.27644 | 36882 ft | 487 kts | 152° |
| 2026-05-07 16:41 | 11.13238 | 124.30880 | 36882 ft | 487 kts | 152° |
| 2026-05-07 16:42 | 11.07285 | 124.34122 | 36882 ft | 487 kts | 152° |
| 2026-05-07 16:42 | 11.01312 | 124.37373 | 36882 ft | 487 kts | 152° |
| 2026-05-07 16:43 | 10.95377 | 124.40602 | 36882 ft | 486 kts | 152° |
| 2026-05-07 16:43 | 10.89446 | 124.43827 | 36882 ft | 486 kts | 152° |
| 2026-05-07 16:44 | 10.83487 | 124.47067 | 36882 ft | 487 kts | 152° |
| 2026-05-07 16:44 | 10.77549 | 124.50294 | 36883 ft | 487 kts | 152° |
| 2026-05-07 16:45 | 10.71603 | 124.53522 | 36882 ft | 487 kts | 152° |
| 2026-05-07 16:45 | 10.65733 | 124.56710 | 36881 ft | 487 kts | 152° |
| 2026-05-07 16:46 | 10.59887 | 124.59882 | 36882 ft | 487 kts | 152° |
| 2026-05-07 16:46 | 10.53948 | 124.63103 | 36882 ft | 487 kts | 152° |
| 2026-05-07 16:47 | 10.47993 | 124.66331 | 36882 ft | 487 kts | 152° |
| 2026-05-07 16:47 | 10.42005 | 124.69577 | 36882 ft | 487 kts | 152° |
| 2026-05-07 16:48 | 10.36123 | 124.72764 | 36876 ft | 469 kts | 152° |
| 2026-05-07 16:48 | 10.30461 | 124.75830 | 36881 ft | 465 kts | 152° |
| 2026-05-07 16:49 | 10.24747 | 124.78922 | 36881 ft | 465 kts | 152° |
| 2026-05-07 16:49 | 10.19050 | 124.82005 | 36882 ft | 465 kts | 152° |
| 2026-05-07 16:50 | 10.13510 | 124.85002 | 36882 ft | 465 kts | 152° |
| 2026-05-07 16:50 | 10.07828 | 124.88075 | 36882 ft | 463 kts | 152° |
| 2026-05-07 16:51 | 10.02294 | 124.91065 | 36882 ft | 463 kts | 152° |
| 2026-05-07 16:51 | 9.96732 | 124.94070 | 36882 ft | 462 kts | 152° |
| 2026-05-07 16:52 | 9.91091 | 124.97117 | 36882 ft | 461 kts | 152° |
| 2026-05-07 16:52 | 9.85431 | 125.00174 | 36883 ft | 461 kts | 152° |
| 2026-05-07 16:53 | 9.79788 | 125.03220 | 36882 ft | 460 kts | 152° |
| 2026-05-07 16:53 | 9.74180 | 125.06242 | 36882 ft | 459 kts | 152° |
| 2026-05-07 16:54 | 9.68557 | 125.09270 | 36882 ft | 459 kts | 152° |
| 2026-05-07 16:54 | 9.64165 | 125.11636 | 36882 ft | 459 kts | 152° |
| 2026-05-07 16:55 | 9.58549 | 125.14654 | 36535 ft | 460 kts | 153° |
| 2026-05-07 16:55 | 9.55716 | 125.16164 | 35680 ft | 467 kts | 153° |
| 2026-05-07 16:55 | 9.52846 | 125.17691 | 34808 ft | 472 kts | 153° |
| 2026-05-07 16:55 | 9.49923 | 125.19247 | 34014 ft | 475 kts | 153° |
| 2026-05-07 16:56 | 9.47032 | 125.20786 | 33440 ft | 472 kts | 153° |
| 2026-05-07 16:56 | 9.44555 | 125.22106 | 33060 ft | 468 kts | 153° |
| 2026-05-07 16:56 | 9.38894 | 125.25124 | 32057 ft | 461 kts | 153° |
| 2026-05-07 16:57 | 9.36045 | 125.26642 | 31558 ft | 458 kts | 153° |
| 2026-05-07 16:57 | 9.33281 | 125.28115 | 31137 ft | 453 kts | 153° |
| 2026-05-07 16:57 | 9.30513 | 125.29589 | 30737 ft | 448 kts | 153° |
| 2026-05-07 16:57 | 9.27774 | 125.31048 | 30350 ft | 443 kts | 153° |
| 2026-05-07 16:58 | 9.25055 | 125.32496 | 29959 ft | 438 kts | 153° |
| 2026-05-07 16:58 | 9.22390 | 125.33914 | 29579 ft | 434 kts | 153° |
| 2026-05-07 16:58 | 9.19742 | 125.35324 | 29205 ft | 429 kts | 153° |
| 2026-05-07 16:58 | 9.17135 | 125.36712 | 28833 ft | 424 kts | 153° |
| 2026-05-07 16:59 | 9.14538 | 125.38094 | 28459 ft | 420 kts | 153° |
| 2026-05-07 16:59 | 9.11997 | 125.39446 | 28090 ft | 416 kts | 153° |
| 2026-05-07 16:59 | 9.09446 | 125.40802 | 27718 ft | 412 kts | 153° |
| 2026-05-07 16:59 | 9.06911 | 125.42150 | 27362 ft | 408 kts | 153° |
| 2026-05-07 17:00 | 9.04429 | 125.43470 | 27009 ft | 404 kts | 153° |
| 2026-05-07 17:00 | 9.01970 | 125.44777 | 26657 ft | 401 kts | 153° |
| 2026-05-07 17:00 | 8.99528 | 125.46075 | 26308 ft | 397 kts | 153° |
| 2026-05-07 17:00 | 8.97880 | 125.46931 | 26067 ft | 394 kts | 155° |
| 2026-05-07 17:01 | 8.95360 | 125.47938 | 25708 ft | 390 kts | 163° |
| 2026-05-07 17:01 | 8.92736 | 125.48583 | 25347 ft | 387 kts | 171° |
| 2026-05-07 17:01 | 8.90102 | 125.48922 | 24998 ft | 384 kts | 174° |
| 2026-05-07 17:01 | 8.87466 | 125.49187 | 24652 ft | 381 kts | 175° |
| 2026-05-07 17:02 | 8.84853 | 125.49441 | 24304 ft | 378 kts | 175° |
| 2026-05-07 17:02 | 8.82256 | 125.49695 | 23957 ft | 375 kts | 175° |
| 2026-05-07 17:02 | 8.79686 | 125.49950 | 23613 ft | 372 kts | 175° |
| 2026-05-07 17:02 | 8.77098 | 125.50210 | 23264 ft | 370 kts | 175° |
| 2026-05-07 17:03 | 8.74587 | 125.50463 | 22923 ft | 368 kts | 175° |
| 2026-05-07 17:03 | 8.72064 | 125.50719 | 22579 ft | 365 kts | 175° |
| 2026-05-07 17:03 | 8.69534 | 125.50976 | 22233 ft | 363 kts | 175° |
| 2026-05-07 17:03 | 8.67037 | 125.51229 | 21889 ft | 361 kts | 175° |
| 2026-05-07 17:04 | 8.64542 | 125.51483 | 21537 ft | 359 kts | 175° |
| 2026-05-07 17:04 | 8.62083 | 125.51733 | 21188 ft | 357 kts | 175° |
| 2026-05-07 17:04 | 8.59611 | 125.51985 | 20839 ft | 355 kts | 175° |
| 2026-05-07 17:04 | 8.57195 | 125.52231 | 20495 ft | 354 kts | 175° |
| 2026-05-07 17:05 | 8.54741 | 125.52480 | 20146 ft | 352 kts | 175° |
| 2026-05-07 17:05 | 8.52342 | 125.52723 | 19803 ft | 350 kts | 176° |
| 2026-05-07 17:05 | 8.49924 | 125.52947 | 19456 ft | 349 kts | 176° |
| 2026-05-07 17:05 | 8.47509 | 125.53160 | 19108 ft | 347 kts | 176° |
| 2026-05-07 17:06 | 8.45131 | 125.53369 | 18764 ft | 346 kts | 176° |
| 2026-05-07 17:06 | 8.42740 | 125.53581 | 18416 ft | 344 kts | 176° |
| 2026-05-07 17:06 | 8.40371 | 125.53793 | 18071 ft | 343 kts | 176° |
| 2026-05-07 17:06 | 8.38011 | 125.54003 | 17725 ft | 342 kts | 176° |
| 2026-05-07 17:07 | 8.35630 | 125.54217 | 17376 ft | 340 kts | 176° |
| 2026-05-07 17:07 | 8.33287 | 125.54427 | 17031 ft | 339 kts | 176° |
| 2026-05-07 17:07 | 8.30969 | 125.54634 | 16689 ft | 338 kts | 177° |
| 2026-05-07 17:07 | 8.28621 | 125.54845 | 16341 ft | 337 kts | 177° |
| 2026-05-07 17:08 | 8.26319 | 125.55051 | 15999 ft | 336 kts | 177° |
| 2026-05-07 17:08 | 8.23986 | 125.55260 | 15652 ft | 335 kts | 177° |
| 2026-05-07 17:08 | 8.21686 | 125.55467 | 15310 ft | 334 kts | 177° |
| 2026-05-07 17:08 | 8.19389 | 125.55673 | 14967 ft | 333 kts | 177° |
| 2026-05-07 17:09 | 8.17069 | 125.55881 | 14619 ft | 332 kts | 177° |
| 2026-05-07 17:09 | 8.14791 | 125.56086 | 14278 ft | 331 kts | 177° |
| 2026-05-07 17:09 | 8.12529 | 125.56289 | 13939 ft | 330 kts | 177° |
| 2026-05-07 17:09 | 8.10231 | 125.56495 | 13594 ft | 329 kts | 177° |
| 2026-05-07 17:10 | 8.07963 | 125.56699 | 13253 ft | 328 kts | 177° |
| 2026-05-07 17:10 | 8.05763 | 125.56896 | 12923 ft | 328 kts | 177° |
| 2026-05-07 17:10 | 8.03609 | 125.57089 | 12598 ft | 327 kts | 177° |
| 2026-05-07 17:10 | 8.01365 | 125.57290 | 12262 ft | 326 kts | 177° |
| 2026-05-07 17:11 | 7.99124 | 125.57491 | 11927 ft | 325 kts | 177° |
| 2026-05-07 17:11 | 7.96873 | 125.57754 | 11588 ft | 325 kts | 173° |
| 2026-05-07 17:11 | 7.94655 | 125.58174 | 11249 ft | 325 kts | 170° |
| 2026-05-07 17:11 | 7.92456 | 125.58661 | 10911 ft | 325 kts | 169° |
| 2026-05-07 17:12 | 7.90253 | 125.59158 | 10574 ft | 324 kts | 169° |
| 2026-05-07 17:12 | 7.88061 | 125.59653 | 10239 ft | 324 kts | 169° |
| 2026-05-07 17:12 | 7.85864 | 125.60148 | 10049 ft | 317 kts | 169° |
| 2026-05-07 17:12 | 7.83758 | 125.60622 | 10019 ft | 306 kts | 169° |
| 2026-05-07 17:13 | 7.81736 | 125.61078 | 9977 ft | 295 kts | 169° |
| 2026-05-07 17:13 | 7.79740 | 125.61524 | 9697 ft | 295 kts | 169° |
| 2026-05-07 17:13 | 7.77758 | 125.61967 | 9399 ft | 294 kts | 169° |
| 2026-05-07 17:13 | 7.75750 | 125.62415 | 9109 ft | 294 kts | 169° |
| 2026-05-07 17:14 | 7.73769 | 125.62858 | 8829 ft | 293 kts | 168° |
| 2026-05-07 17:14 | 7.71778 | 125.63303 | 8549 ft | 292 kts | 168° |
| 2026-05-07 17:14 | 7.69821 | 125.63741 | 8276 ft | 291 kts | 168° |
| 2026-05-07 17:14 | 7.67861 | 125.64179 | 8004 ft | 290 kts | 168° |
| 2026-05-07 17:15 | 7.65880 | 125.64622 | 7729 ft | 289 kts | 168° |
| 2026-05-07 17:15 | 7.63935 | 125.65057 | 7460 ft | 288 kts | 168° |
| 2026-05-07 17:15 | 7.62006 | 125.65488 | 7194 ft | 287 kts | 168° |
| 2026-05-07 17:15 | 7.60048 | 125.65925 | 6925 ft | 286 kts | 168° |
| 2026-05-07 17:16 | 7.58138 | 125.66351 | 6664 ft | 284 kts | 168° |
| 2026-05-07 17:16 | 7.56205 | 125.66783 | 6402 ft | 283 kts | 168° |
| 2026-05-07 17:16 | 7.54286 | 125.67212 | 6142 ft | 282 kts | 167° |
| 2026-05-07 17:16 | 7.52379 | 125.67638 | 5980 ft | 284 kts | 167° |
| 2026-05-07 17:17 | 7.50436 | 125.68074 | 5974 ft | 287 kts | 167° |
| 2026-05-07 17:17 | 7.48501 | 125.68507 | 5961 ft | 286 kts | 167° |
| 2026-05-07 17:17 | 7.46565 | 125.68940 | 5743 ft | 284 kts | 167° |
| 2026-05-07 17:17 | 7.44648 | 125.69369 | 5446 ft | 285 kts | 167° |
| 2026-05-07 17:18 | 7.42716 | 125.69801 | 5189 ft | 284 kts | 167° |
| 2026-05-07 17:18 | 7.40807 | 125.70227 | 4943 ft | 282 kts | 167° |
| 2026-05-07 17:18 | 7.38883 | 125.70657 | 4695 ft | 281 kts | 167° |
| 2026-05-07 17:18 | 7.36995 | 125.71079 | 4491 ft | 278 kts | 167° |
| 2026-05-07 17:19 | 7.35128 | 125.71500 | 4330 ft | 274 kts | 168° |
| 2026-05-07 17:19 | 7.33296 | 125.72002 | 4169 ft | 269 kts | 156° |
| 2026-05-07 17:19 | 7.31713 | 125.73009 | 3868 ft | 271 kts | 141° |
| 2026-05-07 17:19 | 7.30266 | 125.74246 | 3426 ft | 279 kts | 138° |
| 2026-05-07 17:20 | 7.28806 | 125.75550 | 2980 ft | 285 kts | 138° |
| 2026-05-07 17:20 | 7.27316 | 125.76871 | 2531 ft | 290 kts | 138° |
| 2026-05-07 17:20 | 7.25768 | 125.78156 | 2047 ft | 284 kts | 148° |
| 2026-05-07 17:20 | 7.23954 | 125.78666 | 1847 ft | 264 kts | 185° |
| 2026-05-07 17:21 | 7.22357 | 125.78057 | 1840 ft | 238 kts | 224° |
| 2026-05-07 17:21 | 7.21519 | 125.76738 | 1849 ft | 212 kts | 250° |
| 2026-05-07 17:21 | 7.21008 | 125.75427 | 1858 ft | 193 kts | 248° |
| 2026-05-07 17:21 | 7.20453 | 125.74260 | 1863 ft | 175 kts | 243° |
| 2026-05-07 17:22 | 7.19829 | 125.73221 | 1865 ft | 170 kts | 237° |
| 2026-05-07 17:22 | 7.19154 | 125.72292 | 1774 ft | 160 kts | 233° |
| 2026-05-07 17:22 | 7.18469 | 125.71446 | 1562 ft | 154 kts | 231° |
| 2026-05-07 17:22 | 7.17784 | 125.70653 | 1360 ft | 148 kts | 230° |
| 2026-05-07 17:23 | 7.17095 | 125.69862 | 1175 ft | 149 kts | 230° |
| 2026-05-07 17:23 | 7.16417 | 125.69076 | 987 ft | 148 kts | 230° |
| 2026-05-07 17:23 | 7.15743 | 125.68291 | 823 ft | 149 kts | 230° |
| 2026-05-07 17:23 | 7.15069 | 125.67507 | 615 ft | 148 kts | 230° |
| 2026-05-07 17:24 | 7.14393 | 125.66722 | 415 ft | 148 kts | 229° |
| 2026-05-07 17:24 | 7.13731 | 125.65942 | 196 ft | 146 kts | 231° |
| 2026-05-07 17:24 | 7.13075 | 125.65170 | 115 ft | 137 kts | 230° |
| 2026-05-07 17:24 | 7.12548 | 125.64572 | 113 ft | 90 kts | 230° |
| 2026-05-07 17:25 | 7.12229 | 125.64202 | 113 ft | 56 kts | 231° |
| 2026-05-07 17:25 | 7.12024 | 125.63959 | 112 ft | 35 kts | 230° |
| 2026-05-07 17:25 | 7.11895 | 125.63811 | 113 ft | 25 kts | 230° |
| 2026-05-07 17:25 | 7.11812 | 125.63714 | 112 ft | 9 kts | 229° |
| 2026-05-07 17:26 | 7.11775 | 125.63670 | 112 ft | 7 kts | 233° |
| 2026-05-07 17:26 | 7.11763 | 125.63643 | 112 ft | 5 kts | 257° |
| 2026-05-07 17:26 | 7.11769 | 125.63587 | 113 ft | 8 kts | 282° |
| 2026-05-07 17:26 | 7.11759 | 125.63547 | 112 ft | 5 kts | 218° |
| 2026-05-07 17:27 | 7.11712 | 125.63564 | 113 ft | 9 kts | 111° |
| 2026-05-07 17:27 | 7.11749 | 125.63636 | 113 ft | 14 kts | 46° |
| 2026-05-07 17:27 | 7.11820 | 125.63727 | 113 ft | 19 kts | 46° |
| 2026-05-07 17:27 | 7.11924 | 125.63844 | 113 ft | 25 kts | 47° |
| 2026-05-07 17:28 | 7.12050 | 125.63993 | 113 ft | 30 kts | 50° |
| 2026-05-07 17:28 | 7.12200 | 125.64165 | 113 ft | 35 kts | 49° |
| 2026-05-07 17:28 | 7.12375 | 125.64364 | 113 ft | 40 kts | 45° |
| 2026-05-07 17:28 | 7.12528 | 125.64548 | 113 ft | 24 kts | 46° |
| 2026-05-07 17:29 | 7.12584 | 125.64586 | 113 ft | 19 kts | 27° |